sensor_id;sensor_type;location;lat;lon;timestamp;temperature;humidity
34558;DHT22;24708;48.888;8.736;2023-03-01T06:30:51;-2.00;99.90
34558;DHT22;24708;48.888;8.736;2023-03-01T06:33:20;-2.10;99.90
34558;DHT22;24708;48.888;8.736;2023-03-01T06:35:47;-2.00;99.90
34558;DHT22;24708;48.888;8.736;2023-03-01T06:38:14;-2.00;99.90
34558;DHT22;24708;48.888;8.736;2023-03-01T06:40:42;-1.90;99.90
34558;DHT22;24708;48.888;8.736;2023-03-01T06:43:09;-1.90;99.90
34558;DHT22;24708;48.888;8.736;2023-03-01T06:45:37;-1.90;99.90
34558;DHT22;24708;48.888;8.736;2023-03-01T06:48:05;-1.90;99.90
34558;DHT22;24708;48.888;8.736;2023-03-01T06:50:34;-1.80;99.90
34558;DHT22;24708;48.888;8.736;2023-03-01T06:53:04;-1.90;99.90
34558;DHT22;24708;48.888;8.736;2023-03-01T06:55:32;-1.80;99.90
34558;DHT22;24708;48.888;8.736;2023-03-01T06:58:02;-1.70;99.90
34558;DHT22;24708;48.888;8.736;2023-03-01T07:00:32;-1.70;99.90
34558;DHT22;24708;48.888;8.736;2023-03-01T07:03:01;-1.60;99.90
34558;DHT22;24708;48.888;8.736;2023-03-01T07:05:30;-1.50;99.90
34558;DHT22;24708;48.888;8.736;2023-03-01T07:10:27;-1.20;99.90
34558;DHT22;24708;48.888;8.736;2023-03-01T07:12:57;-1.10;99.90
34558;DHT22;24708;48.888;8.736;2023-03-01T07:15:30;-0.80;99.90
34558;DHT22;24708;48.888;8.736;2023-03-01T07:18:11;-0.50;99.90
34558;DHT22;24708;48.888;8.736;2023-03-01T07:20:43;-0.20;99.90
34558;DHT22;24708;48.888;8.736;2023-03-01T07:23:14;0.40;99.90
34558;DHT22;24708;48.888;8.736;2023-03-01T07:25:50;0.20;99.90
34558;DHT22;24708;48.888;8.736;2023-03-01T07:28:20;0.40;99.90
34558;DHT22;24708;48.888;8.736;2023-03-01T07:35:47;1.60;99.90
34558;DHT22;24708;48.888;8.736;2023-03-01T07:40:43;1.70;99.90
34558;DHT22;24708;48.888;8.736;2023-03-01T07:45:38;1.30;99.90
34558;DHT22;24708;48.888;8.736;2023-03-01T07:50:34;1.10;99.90
34558;DHT22;24708;48.888;8.736;2023-03-01T08:00:25;2.40;99.90
34558;DHT22;24708;48.888;8.736;2023-03-01T08:02:53;2.80;99.90
34558;DHT22;24708;48.888;8.736;2023-03-01T08:05:21;2.30;99.90
34558;DHT22;24708;48.888;8.736;2023-03-01T08:12:44;2.80;99.90
34558;DHT22;24708;48.888;8.736;2023-03-01T08:15:12;3.50;99.90
34558;DHT22;24708;48.888;8.736;2023-03-01T08:17:40;3.00;99.90
34558;DHT22;24708;48.888;8.736;2023-03-01T08:20:07;3.90;99.90
34558;DHT22;24708;48.888;8.736;2023-03-01T08:22:42;4.90;99.90
34558;DHT22;24708;48.888;8.736;2023-03-01T08:25:10;5.00;99.90
34558;DHT22;24708;48.888;8.736;2023-03-01T08:27:38;5.50;99.90
34558;DHT22;24708;48.888;8.736;2023-03-01T08:30:06;5.60;99.90
34558;DHT22;24708;48.888;8.736;2023-03-01T08:32:38;6.40;99.90
34558;DHT22;24708;48.888;8.736;2023-03-01T08:35:09;6.70;99.90
34558;DHT22;24708;48.888;8.736;2023-03-01T08:37:39;6.70;99.90
34558;DHT22;24708;48.888;8.736;2023-03-01T08:40:08;7.30;99.90
34558;DHT22;24708;48.888;8.736;2023-03-01T08:47:45;7.60;99.90
34558;DHT22;24708;48.888;8.736;2023-03-01T08:50:12;8.40;99.60
34558;DHT22;24708;48.888;8.736;2023-03-01T08:52:40;8.60;99.90
34558;DHT22;24708;48.888;8.736;2023-03-01T08:55:09;7.90;99.90
34558;DHT22;24708;48.888;8.736;2023-03-01T08:57:45;8.10;99.40
34558;DHT22;24708;48.888;8.736;2023-03-01T09:00:19;8.80;98.00
34558;DHT22;24708;48.888;8.736;2023-03-01T09:02:58;8.90;98.10
34558;DHT22;24708;48.888;8.736;2023-03-01T09:05:34;8.90;97.40
34558;DHT22;24708;48.888;8.736;2023-03-01T09:08:25;8.80;99.90
34558;DHT22;24708;48.888;8.736;2023-03-01T09:46:46;9.40;95.10
34558;DHT22;24708;48.888;8.736;2023-03-01T09:49:25;9.20;99.80
34558;DHT22;24708;48.888;8.736;2023-03-01T09:52:03;8.20;99.70
34558;DHT22;24708;48.888;8.736;2023-03-01T09:54:38;8.10;95.50
34558;DHT22;24708;48.888;8.736;2023-03-01T10:02:39;8.10;99.90
34558;DHT22;24708;48.888;8.736;2023-03-01T10:08:55;8.30;99.90
34558;DHT22;24708;48.888;8.736;2023-03-01T10:11:37;8.60;95.90
34558;DHT22;24708;48.888;8.736;2023-03-01T10:16:48;8.80;95.50
34558;DHT22;24708;48.888;8.736;2023-03-01T10:19:33;9.00;96.50
34558;DHT22;24708;48.888;8.736;2023-03-01T10:22:28;9.90;94.90
34558;DHT22;24708;48.888;8.736;2023-03-01T10:25:02;8.50;95.30
34558;DHT22;24708;48.888;8.736;2023-03-01T10:27:37;8.60;95.80
34558;DHT22;24708;48.888;8.736;2023-03-01T10:30:21;8.20;96.40
34558;DHT22;24708;48.888;8.736;2023-03-01T10:32:51;7.90;96.30
34558;DHT22;24708;48.888;8.736;2023-03-01T10:35:27;8.80;95.70
34558;DHT22;24708;48.888;8.736;2023-03-01T10:38:07;9.00;94.70
34558;DHT22;24708;48.888;8.736;2023-03-01T10:40:49;8.70;95.40
34558;DHT22;24708;48.888;8.736;2023-03-01T10:43:20;8.90;94.70
34558;DHT22;24708;48.888;8.736;2023-03-01T10:45:52;8.40;95.10
34558;DHT22;24708;48.888;8.736;2023-03-01T10:48:25;8.50;94.90
34558;DHT22;24708;48.888;8.736;2023-03-01T10:56:10;8.00;94.80
34558;DHT22;24708;48.888;8.736;2023-03-01T10:59:04;7.40;99.90
34558;DHT22;24708;48.888;8.736;2023-03-01T11:01:40;6.90;96.70
34558;DHT22;24708;48.888;8.736;2023-03-01T11:04:14;7.20;96.50
34558;DHT22;24708;48.888;8.736;2023-03-01T11:07:01;7.30;99.90
34558;DHT22;24708;48.888;8.736;2023-03-01T11:09:35;6.90;99.90
34558;DHT22;24708;48.888;8.736;2023-03-01T11:12:15;7.20;99.90
34558;DHT22;24708;48.888;8.736;2023-03-01T11:14:49;7.80;99.90
34558;DHT22;24708;48.888;8.736;2023-03-01T11:17:29;7.90;95.90
34558;DHT22;24708;48.888;8.736;2023-03-01T11:22:34;7.70;97.30
34558;DHT22;24708;48.888;8.736;2023-03-01T11:25:03;7.10;97.10
34558;DHT22;24708;48.888;8.736;2023-03-01T11:27:41;6.80;97.20
34558;DHT22;24708;48.888;8.736;2023-03-01T11:30:15;6.80;97.40
34558;DHT22;24708;48.888;8.736;2023-03-01T11:33:12;6.70;97.90
34558;DHT22;24708;48.888;8.736;2023-03-01T11:36:05;6.90;97.80
34558;DHT22;24708;48.888;8.736;2023-03-01T11:38:36;6.90;97.30
34558;DHT22;24708;48.888;8.736;2023-03-01T11:41:17;7.30;97.00
34558;DHT22;24708;48.888;8.736;2023-03-01T11:43:59;7.40;97.20
34558;DHT22;24708;48.888;8.736;2023-03-01T11:57:31;8.30;96.40
34558;DHT22;24708;48.888;8.736;2023-03-01T12:03:13;7.10;97.50
34558;DHT22;24708;48.888;8.736;2023-03-01T12:06:08;6.50;98.10
34558;DHT22;24708;48.888;8.736;2023-03-01T12:09:17;6.40;98.60
34558;DHT22;24708;48.888;8.736;2023-03-01T12:14:39;5.20;99.90
34558;DHT22;24708;48.888;8.736;2023-03-01T12:17:45;5.20;99.90
34558;DHT22;24708;48.888;8.736;2023-03-01T12:24:16;5.50;99.90
34558;DHT22;24708;48.888;8.736;2023-03-01T12:32:15;5.50;99.90
34558;DHT22;24708;48.888;8.736;2023-03-01T12:40:46;5.70;99.90
34558;DHT22;24708;48.888;8.736;2023-03-01T12:46:28;5.50;99.90
34558;DHT22;24708;48.888;8.736;2023-03-01T12:51:33;5.70;99.90
34558;DHT22;24708;48.888;8.736;2023-03-01T12:54:11;6.10;99.90
34558;DHT22;24708;48.888;8.736;2023-03-01T12:56:43;5.90;99.90
34558;DHT22;24708;48.888;8.736;2023-03-01T12:59:31;6.40;99.90
34558;DHT22;24708;48.888;8.736;2023-03-01T13:07:44;6.00;99.90
34558;DHT22;24708;48.888;8.736;2023-03-01T13:13:27;5.90;99.90
34558;DHT22;24708;48.888;8.736;2023-03-01T13:15:56;6.20;99.90
34558;DHT22;24708;48.888;8.736;2023-03-01T13:20:55;6.50;99.90
34558;DHT22;24708;48.888;8.736;2023-03-01T13:23:37;6.40;99.90
34558;DHT22;24708;48.888;8.736;2023-03-01T13:26:16;6.40;99.90
34558;DHT22;24708;48.888;8.736;2023-03-01T13:39:04;6.10;99.90
34558;DHT22;24708;48.888;8.736;2023-03-01T13:44:21;6.00;99.90
34558;DHT22;24708;48.888;8.736;2023-03-01T13:46:59;6.00;99.90
34558;DHT22;24708;48.888;8.736;2023-03-01T13:53:24;5.80;99.90
34558;DHT22;24708;48.888;8.736;2023-03-01T13:55:57;6.20;99.90
34558;DHT22;24708;48.888;8.736;2023-03-01T13:58:33;6.20;99.90
34558;DHT22;24708;48.888;8.736;2023-03-01T14:01:22;6.10;99.90
34558;DHT22;24708;48.888;8.736;2023-03-01T14:03:50;6.10;99.90
34558;DHT22;24708;48.888;8.736;2023-03-01T14:06:25;6.10;99.90
34558;DHT22;24708;48.888;8.736;2023-03-01T14:09:14;5.90;99.90
34558;DHT22;24708;48.888;8.736;2023-03-01T14:12:17;6.00;99.90
34558;DHT22;24708;48.888;8.736;2023-03-01T14:15:01;6.00;99.90
34558;DHT22;24708;48.888;8.736;2023-03-01T14:20:20;6.00;99.90
34558;DHT22;24708;48.888;8.736;2023-03-01T14:22:53;5.90;99.90
34558;DHT22;24708;48.888;8.736;2023-03-01T14:25:28;5.90;99.90
34558;DHT22;24708;48.888;8.736;2023-03-01T14:30:36;5.90;99.90
34558;DHT22;24708;48.888;8.736;2023-03-01T14:33:17;5.90;99.90
34558;DHT22;24708;48.888;8.736;2023-03-01T14:38:38;6.00;99.90
34558;DHT22;24708;48.888;8.736;2023-03-01T14:41:10;5.90;99.90
34558;DHT22;24708;48.888;8.736;2023-03-01T14:43:41;5.90;99.90
34558;DHT22;24708;48.888;8.736;2023-03-01T14:46:30;6.40;99.90
34558;DHT22;24708;48.888;8.736;2023-03-01T14:49:19;6.00;99.90
34558;DHT22;24708;48.888;8.736;2023-03-01T14:52:02;6.00;99.90
34558;DHT22;24708;48.888;8.736;2023-03-01T14:54:39;6.00;99.90
34558;DHT22;24708;48.888;8.736;2023-03-01T14:57:26;6.50;99.90
34558;DHT22;24708;48.888;8.736;2023-03-01T14:59:57;6.00;99.90
34558;DHT22;24708;48.888;8.736;2023-03-01T15:02:26;6.00;99.90
34558;DHT22;24708;48.888;8.736;2023-03-01T15:04:57;6.00;99.90
34558;DHT22;24708;48.888;8.736;2023-03-01T15:07:34;6.00;99.90
34558;DHT22;24708;48.888;8.736;2023-03-01T15:10:05;6.00;99.90
34558;DHT22;24708;48.888;8.736;2023-03-01T15:12:38;6.00;99.90
34558;DHT22;24708;48.888;8.736;2023-03-01T15:17:56;5.90;99.90
34558;DHT22;24708;48.888;8.736;2023-03-01T15:20:25;6.00;99.90
34558;DHT22;24708;48.888;8.736;2023-03-01T15:25:28;6.00;99.90
34558;DHT22;24708;48.888;8.736;2023-03-01T15:27:58;5.90;99.90
34558;DHT22;24708;48.888;8.736;2023-03-01T15:30:34;5.80;99.90
34558;DHT22;24708;48.888;8.736;2023-03-01T15:33:29;5.90;99.90
34558;DHT22;24708;48.888;8.736;2023-03-01T15:35:59;6.00;99.90
34558;DHT22;24708;48.888;8.736;2023-03-01T15:38:54;6.20;99.90
34558;DHT22;24708;48.888;8.736;2023-03-01T15:41:28;5.90;99.90
34558;DHT22;24708;48.888;8.736;2023-03-01T15:43:59;5.90;99.90
34558;DHT22;24708;48.888;8.736;2023-03-01T15:46:33;5.80;99.90
34558;DHT22;24708;48.888;8.736;2023-03-01T15:49:04;6.40;99.90
34558;DHT22;24708;48.888;8.736;2023-03-01T15:51:34;5.80;99.90
34558;DHT22;24708;48.888;8.736;2023-03-01T15:54:06;5.80;99.90
34558;DHT22;24708;48.888;8.736;2023-03-01T15:56:37;5.80;99.90
34558;DHT22;24708;48.888;8.736;2023-03-01T16:01:34;5.80;99.90
34558;DHT22;24708;48.888;8.736;2023-03-01T16:04:01;5.70;99.90
34558;DHT22;24708;48.888;8.736;2023-03-01T16:06:29;5.70;99.90
34558;DHT22;24708;48.888;8.736;2023-03-01T16:08:56;5.70;99.90
34558;DHT22;24708;48.888;8.736;2023-03-01T16:11:24;5.70;99.90
34558;DHT22;24708;48.888;8.736;2023-03-01T16:13:51;5.60;99.90
34558;DHT22;24708;48.888;8.736;2023-03-01T16:16:18;5.60;99.90
34558;DHT22;24708;48.888;8.736;2023-03-01T16:18:46;5.50;99.90
34558;DHT22;24708;48.888;8.736;2023-03-01T16:21:22;5.50;99.90
34558;DHT22;24708;48.888;8.736;2023-03-01T16:23:52;5.40;99.90
34558;DHT22;24708;48.888;8.736;2023-03-01T16:26:19;5.40;99.90
34558;DHT22;24708;48.888;8.736;2023-03-01T16:28:47;5.60;99.90
34558;DHT22;24708;48.888;8.736;2023-03-01T16:31:19;5.30;99.90
34558;DHT22;24708;48.888;8.736;2023-03-01T16:33:47;5.20;99.90
34558;DHT22;24708;48.888;8.736;2023-03-01T16:36:19;5.30;99.90
34558;DHT22;24708;48.888;8.736;2023-03-01T16:38:46;5.50;99.90
34558;DHT22;24708;48.888;8.736;2023-03-01T16:41:17;5.60;99.90
34558;DHT22;24708;48.888;8.736;2023-03-01T16:43:45;5.30;99.90
34558;DHT22;24708;48.888;8.736;2023-03-01T16:46:19;5.00;99.90
34558;DHT22;24708;48.888;8.736;2023-03-01T16:48:48;5.00;99.90
34558;DHT22;24708;48.888;8.736;2023-03-01T16:51:15;4.90;99.90
34558;DHT22;24708;48.888;8.736;2023-03-01T16:53:43;4.90;99.90
34558;DHT22;24708;48.888;8.736;2023-03-01T16:56:14;4.80;99.90
34558;DHT22;24708;48.888;8.736;2023-03-01T16:58:42;4.80;99.90
